Terminal Aerodrome Forecast
Issued by NWS

Home | Current Version | Previous Version | Text Only | Print | Product List | Glossary On
Versions: 1 2 3 4 5 6 7 8 9 10 11 12 13 14 15
000
FTUS41 KPBZ 192332
TAFFKL
TAF
KFKL 192332Z 2000/2024 30006KT P6SM SCT050
     FM200800 00000KT 2SM BR SCT250
      TEMPO 2009/2012 1SM BR
     FM201400 VRB03KT P6SM SCT250
      AMD LTD TO CLD VIS AND WIND=

USA.gov is the U.S. government's official web portal to all federal, state and local government web resources and services.